createdAt,value
2022-12-15T00:01:48.909Z,88.89
2022-12-15T00:04:34.087Z,89.61
2022-12-15T00:07:18.710Z,90.06
2022-12-15T00:10:03.947Z,89.83
2022-12-15T00:12:48.678Z,89.00
2022-12-15T00:15:33.677Z,88.95
2022-12-15T00:18:23.419Z,89.87
2022-12-15T00:21:08.390Z,91.11
2022-12-15T00:23:53.429Z,90.79
2022-12-15T00:26:38.859Z,88.75
2022-12-15T00:29:23.499Z,89.18
2022-12-15T00:32:08.353Z,90.08
2022-12-15T00:34:53.121Z,89.18
2022-12-15T00:37:37.892Z,87.82
2022-12-15T00:40:04.606Z,87.82
2022-12-15T00:42:31.065Z,88.34
2022-12-15T00:44:58.046Z,89.31
2022-12-15T00:47:24.882Z,89.54
2022-12-15T00:50:09.928Z,89.69
2022-12-15T00:52:54.802Z,89.99
2022-12-15T00:55:39.466Z,87.69
2022-12-15T00:58:24.574Z,86.75
2022-12-15T01:01:09.361Z,85.50
2022-12-15T01:03:54.947Z,87.08
2022-12-15T01:06:39.702Z,87.43
2022-12-15T01:09:26.854Z,87.24
2022-12-15T01:12:11.514Z,88.21
2022-12-15T01:14:56.397Z,89.79
2022-12-15T01:17:41.085Z,89.17
2022-12-15T01:20:17.496Z,88.59
2022-12-15T01:22:49.393Z,90.60
2022-12-15T01:25:17.635Z,88.99
2022-12-15T01:27:44.701Z,87.03
2022-12-15T01:30:14.395Z,86.81
2022-12-15T01:32:45.878Z,87.48
2022-12-15T01:35:16.911Z,88.51
2022-12-15T01:37:43.680Z,89.25
2022-12-15T01:40:34.858Z,89.15
2022-12-15T01:43:01.290Z,89.75
2022-12-15T01:45:27.683Z,89.71
2022-12-15T01:48:09.210Z,90.84
2022-12-15T01:50:41.801Z,91.75
2022-12-15T01:53:10.357Z,90.75
2022-12-15T01:55:39.658Z,90.26
2022-12-15T01:58:09.251Z,91.15
2022-12-15T02:00:35.803Z,91.44
2022-12-15T02:03:05.781Z,89.91
2022-12-15T02:05:33.486Z,91.04
2022-12-15T02:08:00.861Z,89.58
2022-12-15T02:10:42.529Z,89.84
2022-12-15T02:13:28.720Z,89.94
2022-12-15T02:16:15.449Z,90.65
2022-12-15T02:19:07.734Z,90.64
2022-12-15T02:21:45.524Z,92.05
2022-12-15T02:24:37.889Z,90.78
2022-12-15T02:27:34.036Z,90.67
2022-12-15T02:30:18.415Z,90.75
2022-12-15T02:33:07.270Z,91.20
2022-12-15T02:35:57.449Z,90.23
2022-12-15T02:38:36.062Z,88.80
2022-12-15T02:41:05.932Z,86.58
2022-12-15T02:43:36.327Z,87.80
2022-12-15T02:46:09.574Z,88.64
2022-12-15T02:48:55.586Z,90.23
2022-12-15T02:51:49.270Z,88.39
2022-12-15T02:54:39.786Z,88.49
2022-12-15T02:57:13.584Z,89.07
2022-12-15T02:59:54.673Z,89.31
2022-12-15T03:02:24.230Z,90.56
2022-12-15T03:04:51.574Z,89.29
2022-12-15T03:07:17.713Z,88.06
2022-12-15T03:09:44.339Z,87.42
2022-12-15T03:12:10.457Z,87.38
2022-12-15T03:18:55.883Z,87.65
2022-12-15T03:21:22.315Z,88.91
2022-12-15T04:21:35.811Z,87.61
2022-12-15T04:24:20.393Z,89.25
2022-12-15T04:27:07.880Z,88.18
2022-12-15T04:29:52.809Z,88.79
2022-12-15T04:32:37.534Z,90.38
2022-12-15T04:35:22.841Z,88.85
2022-12-15T04:38:08.184Z,88.83
2022-12-15T04:40:53.153Z,88.81
2022-12-15T04:43:38.345Z,89.12
2022-12-15T04:46:23.372Z,89.55
2022-12-15T04:49:08.742Z,89.20
2022-12-15T04:51:53.654Z,89.81
2022-12-15T04:54:38.882Z,90.82
2022-12-15T04:57:23.618Z,90.68
2022-12-15T05:00:08.705Z,89.66
2022-12-15T05:02:53.634Z,89.59
2022-12-15T05:05:39.208Z,89.11
2022-12-15T05:08:24.303Z,89.12
2022-12-15T05:11:09.545Z,89.96
2022-12-15T05:13:54.663Z,90.01
2022-12-15T05:16:39.754Z,90.54
2022-12-15T05:19:24.626Z,90.84
2022-12-15T05:22:09.583Z,91.43
2022-12-15T05:24:54.274Z,91.16
2022-12-15T05:27:39.522Z,90.33
2022-12-15T05:30:25.311Z,89.33
2022-12-15T05:32:51.794Z,89.34
2022-12-15T05:35:18.005Z,89.72
2022-12-15T05:37:44.529Z,89.89
2022-12-15T05:40:11.095Z,89.34
2022-12-15T05:42:37.804Z,89.35
2022-12-15T05:45:04.787Z,89.99
2022-12-15T05:47:31.538Z,90.01
2022-12-15T05:49:57.850Z,89.91
2022-12-15T05:52:24.433Z,90.87
2022-12-15T05:54:50.884Z,90.41
2022-12-15T05:57:17.465Z,89.93
2022-12-15T05:59:43.606Z,90.34
2022-12-15T06:02:10.810Z,90.50
2022-12-15T06:04:37.383Z,91.59
2022-12-15T06:07:04.032Z,90.51
2022-12-15T06:09:30.443Z,89.83
2022-12-15T06:11:57.066Z,89.83
2022-12-15T06:14:23.277Z,90.47
2022-12-15T06:16:51.639Z,91.38
2022-12-15T06:19:19.203Z,91.03
2022-12-15T06:21:45.756Z,90.50
2022-12-15T06:24:11.933Z,90.74
2022-12-15T06:26:39.490Z,91.56
2022-12-15T06:29:08.509Z,91.17
2022-12-15T06:31:36.588Z,90.19
2022-12-15T06:34:05.181Z,89.43
2022-12-15T06:36:32.044Z,88.25
2022-12-15T06:39:00.775Z,87.23
2022-12-15T06:41:29.719Z,86.86
2022-12-15T06:43:56.279Z,85.31
2022-12-15T06:46:24.166Z,87.66
2022-12-15T06:48:51.058Z,86.77
2022-12-15T06:51:17.743Z,87.20
2022-12-15T06:53:53.085Z,87.24
2022-12-15T06:56:28.934Z,86.70
2022-12-15T06:58:59.270Z,85.81
2022-12-15T07:01:25.850Z,85.32
2022-12-15T07:03:53.288Z,85.86
2022-12-15T07:06:20.349Z,86.75
2022-12-15T07:08:53.674Z,85.78
2022-12-15T07:11:21.361Z,85.50
2022-12-15T07:13:52.255Z,85.21
2022-12-15T07:16:21.014Z,84.73
2022-12-15T07:18:47.412Z,85.17
2022-12-15T07:21:14.147Z,83.10
2022-12-15T07:23:54.290Z,84.59
2022-12-15T07:26:22.972Z,85.66
2022-12-15T07:28:49.311Z,87.34
2022-12-15T07:31:15.980Z,88.37
2022-12-15T07:33:42.298Z,88.44
2022-12-15T07:36:10.222Z,89.56
2022-12-15T07:38:36.542Z,90.69
2022-12-15T07:41:06.116Z,89.59
2022-12-15T07:43:33.064Z,89.12
2022-12-15T07:46:01.309Z,89.04
2022-12-15T07:48:28.536Z,89.01
2022-12-15T07:51:05.091Z,88.80
2022-12-15T07:53:35.817Z,89.60
2022-12-15T07:56:09.639Z,90.20
2022-12-15T07:58:37.193Z,90.35
2022-12-15T08:01:08.080Z,89.33
2022-12-15T08:03:35.909Z,88.61
2022-12-15T08:06:11.556Z,88.74
2022-12-15T08:08:39.476Z,89.23
2022-12-15T08:11:07.583Z,88.68
2022-12-15T08:16:21.521Z,89.15
2022-12-15T08:18:48.111Z,90.14
2022-12-15T08:21:14.545Z,89.22
2022-12-15T08:23:40.952Z,89.82
2022-12-15T08:26:10.961Z,89.72
2022-12-15T08:28:39.259Z,87.98
2022-12-15T08:31:09.117Z,87.52
2022-12-15T08:33:36.317Z,87.15
2022-12-15T08:36:06.135Z,86.54
2022-12-15T08:38:33.705Z,86.47
2022-12-15T08:41:07.795Z,85.64
2022-12-15T08:43:34.908Z,87.08
2022-12-15T08:46:01.788Z,86.53
2022-12-15T08:48:28.245Z,86.24
2022-12-15T08:50:55.985Z,85.99
2022-12-15T08:53:31.133Z,86.07
2022-12-15T08:56:07.853Z,85.42
2022-12-15T08:58:34.513Z,85.91
2022-12-15T09:01:05.986Z,85.68
2022-12-15T09:03:35.971Z,85.42
2022-12-15T09:06:05.141Z,85.39
2022-12-15T09:08:32.391Z,85.76
2022-12-15T09:10:59.674Z,86.64
2022-12-15T09:13:26.591Z,88.36
2022-12-15T09:16:14.329Z,86.68
2022-12-15T09:18:47.052Z,86.44
2022-12-15T09:21:15.231Z,87.44
2022-12-15T09:23:42.573Z,88.69
2022-12-15T09:26:11.848Z,89.95
2022-12-15T09:28:39.920Z,89.38
2022-12-15T09:31:06.700Z,89.39
2022-12-15T09:33:34.123Z,89.46
2022-12-15T09:36:01.291Z,90.14
2022-12-15T09:38:27.577Z,91.75
2022-12-15T09:40:54.565Z,91.26
2022-12-15T09:43:46.635Z,92.06
2022-12-15T09:46:39.780Z,91.98
2022-12-15T09:49:19.043Z,92.31
2022-12-15T09:51:59.877Z,92.52
2022-12-15T09:54:33.525Z,93.94
2022-12-15T09:57:07.347Z,93.17
2022-12-15T09:59:40.079Z,93.15
2022-12-15T10:02:31.945Z,93.00
2022-12-15T10:05:16.051Z,93.28
2022-12-15T10:07:50.475Z,93.51
2022-12-15T10:10:42.370Z,93.48
2022-12-15T10:13:19.847Z,93.92
2022-12-15T10:16:15.097Z,93.11
2022-12-15T10:18:57.560Z,92.30
2022-12-15T10:21:28.027Z,92.09
2022-12-15T10:24:07.186Z,91.69
2022-12-15T10:26:34.927Z,92.27
2022-12-15T10:29:49.807Z,92.99
2022-12-15T10:32:18.848Z,93.28
2022-12-15T10:34:45.826Z,93.68
2022-12-15T10:37:17.627Z,93.29
2022-12-15T10:39:46.895Z,93.14
2022-12-15T10:42:20.403Z,93.20
2022-12-15T10:44:55.812Z,93.82
2022-12-15T10:47:25.492Z,93.92
2022-12-15T10:49:54.831Z,93.66
2022-12-15T10:52:36.902Z,94.21
2022-12-15T10:55:29.064Z,93.63
2022-12-15T10:58:43.686Z,93.70
2022-12-15T11:01:18.439Z,93.81
2022-12-15T11:03:45.734Z,93.54
2022-12-15T11:06:18.613Z,93.76
2022-12-15T11:08:46.742Z,93.40
2022-12-15T11:11:45.587Z,93.07
2022-12-15T11:14:15.869Z,93.73
2022-12-15T11:16:49.625Z,93.27
2022-12-15T11:19:47.002Z,93.08
2022-12-15T11:22:30.627Z,92.74
2022-12-15T11:25:04.503Z,93.01
2022-12-15T11:27:38.233Z,93.57
2022-12-15T11:30:21.838Z,92.13
2022-12-15T11:32:53.042Z,92.56
2022-12-15T11:35:26.167Z,90.69
2022-12-15T11:38:11.886Z,90.21
2022-12-15T11:40:39.198Z,90.52
2022-12-15T11:43:23.816Z,91.36
2022-12-15T11:45:58.946Z,91.28
2022-12-15T11:48:50.620Z,90.59
2022-12-15T11:51:25.323Z,91.34
2022-12-15T11:54:14.183Z,91.71
2022-12-15T11:57:10.045Z,91.94
2022-12-15T11:59:54.017Z,92.91
2022-12-15T12:02:27.360Z,91.48
2022-12-15T12:05:28.287Z,90.58
2022-12-15T12:08:16.734Z,91.05
2022-12-15T12:11:04.689Z,90.69
2022-12-15T12:13:53.583Z,91.67
2022-12-15T12:16:36.833Z,91.53
2022-12-15T12:19:15.674Z,91.75
2022-12-15T12:21:42.074Z,92.66
2022-12-15T12:24:24.297Z,92.88
2022-12-15T12:27:03.713Z,93.40
2022-12-15T12:29:48.832Z,93.09
2022-12-15T12:33:03.215Z,92.43
2022-12-15T12:35:40.068Z,92.29
2022-12-15T12:38:10.900Z,91.86
2022-12-15T12:40:40.566Z,91.66
2022-12-15T12:43:13.536Z,91.43
2022-12-15T12:45:56.853Z,91.71
2022-12-15T12:48:51.152Z,91.22
2022-12-15T12:51:30.940Z,90.45
2022-12-15T12:53:58.831Z,90.54
2022-12-15T12:56:39.384Z,90.20
2022-12-15T12:59:28.943Z,90.33
2022-12-15T13:02:16.983Z,90.39
2022-12-15T13:04:49.676Z,90.21
2022-12-15T13:07:32.027Z,90.56
2022-12-15T13:10:07.660Z,90.99
2022-12-15T13:12:58.506Z,89.93
2022-12-15T13:15:44.367Z,89.64
2022-12-15T13:18:23.138Z,89.81
2022-12-15T13:20:54.046Z,89.79
2022-12-15T13:23:22.928Z,89.73
2022-12-15T13:25:55.919Z,89.60
2022-12-15T13:28:46.852Z,89.64
2022-12-15T13:31:20.059Z,89.80
2022-12-15T13:33:49.683Z,89.25
2022-12-15T13:36:40.891Z,89.38
2022-12-15T13:39:16.166Z,89.46
2022-12-15T13:42:00.643Z,89.69
2022-12-15T13:44:42.708Z,89.56
2022-12-15T13:47:12.714Z,90.04
2022-12-15T13:49:53.218Z,90.10
2022-12-15T13:52:59.407Z,90.94
2022-12-15T13:55:22.661Z,90.37
2022-12-15T13:57:59.288Z,90.08
2022-12-15T14:00:25.751Z,90.61
2022-12-15T14:03:06.215Z,90.62
2022-12-15T14:05:33.843Z,90.81
2022-12-15T14:08:02.893Z,90.76
2022-12-15T14:10:32.048Z,90.27
2022-12-15T14:13:16.057Z,90.90
2022-12-15T14:15:46.600Z,91.24
2022-12-15T14:18:32.990Z,91.10
2022-12-15T14:21:04.055Z,91.28
2022-12-15T14:24:03.967Z,91.19
2022-12-15T14:26:31.296Z,91.70
2022-12-15T14:29:04.342Z,91.63
2022-12-15T14:31:31.012Z,91.67
2022-12-15T14:34:23.061Z,91.99
2022-12-15T14:36:50.887Z,92.45
2022-12-15T14:39:23.253Z,92.00
2022-12-15T14:41:51.395Z,92.38
2022-12-15T14:44:36.221Z,92.08
2022-12-15T14:47:19.615Z,92.32
2022-12-15T14:49:47.701Z,92.20
2022-12-15T14:52:30.310Z,91.59
2022-12-15T14:55:00.219Z,91.55
2022-12-15T14:57:28.100Z,92.37
2022-12-15T14:59:54.931Z,92.88
2022-12-15T15:02:29.809Z,92.81
2022-12-15T15:04:59.227Z,93.10
2022-12-15T15:07:30.887Z,93.06
2022-12-15T15:09:59.092Z,93.54
2022-12-15T15:12:49.205Z,93.30
2022-12-15T15:15:19.162Z,93.62
2022-12-15T15:17:52.727Z,93.81
2022-12-15T15:20:26.183Z,93.69
2022-12-15T15:23:07.914Z,93.87
2022-12-15T15:25:39.934Z,94.18
2022-12-15T15:28:36.183Z,94.46
2022-12-15T15:31:40.285Z,94.58
2022-12-15T15:34:08.163Z,94.80
2022-12-15T15:36:38.917Z,94.15
2022-12-15T15:39:13.000Z,94.59
2022-12-15T15:41:39.447Z,93.82
2022-12-15T15:44:12.219Z,93.62
2022-12-15T15:46:48.874Z,93.23
2022-12-15T15:49:19.054Z,93.03
2022-12-15T15:51:46.240Z,93.02
2022-12-15T15:54:15.789Z,93.47
2022-12-15T15:56:42.252Z,92.86
2022-12-15T15:59:11.789Z,92.63
2022-12-15T16:01:38.504Z,92.43
2022-12-15T16:04:06.029Z,92.85
2022-12-15T16:06:32.716Z,92.90
2022-12-15T16:08:59.074Z,92.41
2022-12-15T16:11:31.908Z,92.75
2022-12-15T16:13:58.243Z,92.94
2022-12-15T16:16:30.556Z,93.01
2022-12-15T16:18:56.928Z,92.56
2022-12-15T16:21:26.962Z,91.93
2022-12-15T16:23:56.184Z,91.82
2022-12-15T16:26:28.495Z,91.92
2022-12-15T16:28:54.835Z,92.53
2022-12-15T16:31:41.480Z,92.25
2022-12-15T16:34:08.605Z,92.03
2022-12-15T16:36:35.633Z,92.11
2022-12-15T16:39:03.078Z,91.61
2022-12-15T16:41:29.822Z,92.37
2022-12-15T16:43:56.410Z,91.98
2022-12-15T16:46:22.933Z,92.31
2022-12-15T16:48:49.169Z,92.69
2022-12-15T16:51:38.031Z,91.30
2022-12-15T16:54:05.620Z,92.41
2022-12-15T16:56:32.825Z,92.24
2022-12-15T16:59:30.805Z,92.89
2022-12-15T17:01:45.943Z,94.31
2022-12-15T17:04:12.277Z,94.38
2022-12-15T17:06:39.484Z,94.07
2022-12-15T17:09:08.096Z,92.85
2022-12-15T17:11:35.054Z,92.07
2022-12-15T17:14:01.378Z,91.37
2022-12-15T17:16:28.500Z,89.82
2022-12-15T17:18:55.574Z,90.66
2022-12-15T17:21:54.537Z,91.92
2022-12-15T17:24:21.722Z,91.34
2022-12-15T17:26:49.129Z,91.39
2022-12-15T17:29:19.677Z,90.17
2022-12-15T17:31:46.329Z,90.06
2022-12-15T17:34:30.710Z,91.16
2022-12-15T17:36:59.234Z,92.03
2022-12-15T17:39:26.711Z,92.24
2022-12-15T17:42:02.288Z,92.25
2022-12-15T17:44:36.067Z,91.38
2022-12-15T17:47:05.668Z,91.49
2022-12-15T17:49:36.140Z,91.24
2022-12-15T17:52:26.529Z,90.33
2022-12-15T17:54:53.828Z,90.15
2022-12-15T17:57:20.674Z,90.06
2022-12-15T17:59:47.421Z,89.60
2022-12-15T18:02:14.690Z,88.35
2022-12-15T18:04:41.664Z,90.13
2022-12-15T18:07:17.809Z,88.68
2022-12-15T18:09:44.280Z,90.21
2022-12-15T18:12:25.699Z,91.88
2022-12-15T18:14:53.336Z,93.34
2022-12-15T18:17:20.578Z,92.52
2022-12-15T18:19:46.889Z,91.90
2022-12-15T18:22:24.872Z,89.59
2022-12-15T18:24:52.706Z,90.39
2022-12-15T18:27:23.891Z,89.81
2022-12-15T18:29:51.257Z,88.12
2022-12-15T18:32:19.838Z,88.70
2022-12-15T18:34:46.424Z,89.50
2022-12-15T18:37:17.797Z,90.05
2022-12-15T18:39:44.832Z,91.41
2022-12-15T18:42:20.053Z,93.31
2022-12-15T18:44:51.876Z,92.03
2022-12-15T18:47:21.473Z,90.76
2022-12-15T18:49:47.970Z,92.13
2022-12-15T18:52:19.682Z,90.48
2022-12-15T18:54:47.395Z,90.69
2022-12-15T18:57:30.477Z,90.41
2022-12-15T18:59:58.890Z,89.90
2022-12-15T19:02:25.454Z,89.62
2022-12-15T19:04:52.478Z,88.83
2022-12-15T19:07:19.057Z,88.38
2022-12-15T19:09:45.388Z,87.00
2022-12-15T19:12:17.749Z,88.37
2022-12-15T19:14:46.325Z,89.48
2022-12-15T19:17:37.916Z,89.02
2022-12-15T19:20:31.392Z,90.79
2022-12-15T19:22:58.157Z,90.46
2022-12-15T19:25:27.591Z,90.61
2022-12-15T19:27:59.407Z,91.46
2022-12-15T19:30:35.706Z,91.21
2022-12-15T19:33:07.100Z,92.35
2022-12-15T19:35:33.560Z,92.24
2022-12-15T19:38:02.760Z,91.67
2022-12-15T19:40:32.232Z,89.60
2022-12-15T19:43:00.305Z,89.66
2022-12-15T19:45:30.107Z,89.84
2022-12-15T19:47:57.614Z,91.93
2022-12-15T19:50:29.948Z,91.35
2022-12-15T19:52:59.430Z,90.75
2022-12-15T19:55:34.820Z,89.42
2022-12-15T19:58:27.855Z,88.45
2022-12-15T20:01:00.531Z,87.92
2022-12-15T20:03:29.117Z,87.69
2022-12-15T20:05:57.887Z,87.53
2022-12-15T20:08:34.019Z,86.19
2022-12-15T20:11:00.683Z,86.02
2022-12-15T20:13:27.252Z,88.75
2022-12-15T20:15:54.548Z,88.91
2022-12-15T20:18:21.413Z,88.50
2022-12-15T20:20:48.917Z,88.37
2022-12-15T20:23:23.010Z,87.57
2022-12-15T20:25:49.730Z,87.42
2022-12-15T20:28:20.519Z,87.04
2022-12-15T20:30:47.937Z,87.00
2022-12-15T20:33:15.810Z,86.93
2022-12-15T20:35:44.324Z,85.90
2022-12-15T20:38:28.323Z,87.18
2022-12-15T20:40:55.862Z,85.62
2022-12-15T20:43:23.578Z,86.73
2022-12-15T20:45:58.473Z,86.93
2022-12-15T20:48:25.524Z,86.67
2022-12-15T20:50:52.618Z,86.95
2022-12-15T20:53:24.817Z,85.78
2022-12-15T20:55:52.903Z,87.25
2022-12-15T20:58:20.598Z,87.06
2022-12-15T21:00:48.994Z,86.38
2022-12-15T21:03:27.911Z,86.70
2022-12-15T21:05:56.628Z,86.27
2022-12-15T21:08:26.573Z,85.89
2022-12-15T21:10:55.497Z,85.67
2022-12-15T21:13:26.649Z,85.81
2022-12-15T21:15:53.292Z,86.88
2022-12-15T21:19:03.564Z,86.57
2022-12-15T21:21:16.278Z,86.64
2022-12-15T21:23:43.082Z,85.80
2022-12-15T21:26:10.221Z,85.64
2022-12-15T21:28:36.983Z,86.17
2022-12-15T21:31:03.502Z,86.17
2022-12-15T21:33:30.229Z,86.80
2022-12-15T21:35:56.710Z,86.33
2022-12-15T21:38:39.112Z,86.41
2022-12-15T21:41:10.887Z,86.90
2022-12-15T21:43:37.745Z,86.94
2022-12-15T21:46:14.224Z,86.66
2022-12-15T21:49:00.428Z,86.91
2022-12-15T21:51:31.031Z,86.08
2022-12-15T21:53:57.953Z,86.59
2022-12-15T21:56:24.469Z,85.95
2022-12-15T21:58:52.538Z,85.01
2022-12-15T22:01:29.752Z,85.16
2022-12-15T22:03:59.901Z,84.87
2022-12-15T22:06:28.689Z,85.83
2022-12-15T22:09:00.342Z,86.77
2022-12-15T22:11:29.472Z,87.18
2022-12-15T22:14:01.641Z,86.73
2022-12-15T22:16:29.107Z,84.14
2022-12-15T22:18:57.561Z,85.88
2022-12-15T22:21:24.576Z,87.02
2022-12-15T22:23:51.466Z,86.99
2022-12-15T22:26:30.966Z,85.39
2022-12-15T22:29:02.294Z,86.81
2022-12-15T22:31:28.872Z,86.80
2022-12-15T22:33:55.778Z,85.72
2022-12-15T22:36:22.317Z,86.80
2022-12-15T22:38:48.843Z,87.00
2022-12-15T22:41:20.675Z,87.57
2022-12-15T22:43:56.389Z,88.95
2022-12-15T22:46:24.047Z,88.91
2022-12-15T22:48:52.106Z,90.16
2022-12-15T22:51:18.568Z,90.16
2022-12-15T22:53:45.891Z,88.81
2022-12-15T22:56:34.691Z,86.48
2022-12-15T22:59:07.176Z,86.87
2022-12-15T23:01:34.540Z,87.38
2022-12-15T23:04:01.436Z,88.70
2022-12-15T23:06:27.704Z,88.64
2022-12-15T23:08:55.760Z,87.35
2022-12-15T23:11:37.583Z,86.99
2022-12-15T23:14:06.048Z,86.57
2022-12-15T23:16:34.285Z,86.74
2022-12-15T23:19:00.851Z,86.05
2022-12-15T23:21:28.102Z,85.32
2022-12-15T23:23:54.533Z,84.94
2022-12-15T23:26:22.563Z,84.92
2022-12-15T23:28:49.401Z,85.89
2022-12-15T23:31:15.810Z,86.37
2022-12-15T23:33:42.250Z,86.66
2022-12-15T23:36:09.593Z,85.94
2022-12-15T23:38:36.082Z,85.91
2022-12-15T23:41:02.640Z,85.68
2022-12-15T23:43:32.405Z,85.88
2022-12-15T23:46:02.301Z,84.39
2022-12-15T23:48:30.944Z,86.60
2022-12-15T23:51:14.595Z,86.07
2022-12-15T23:53:42.447Z,85.94
2022-12-15T23:56:14.230Z,86.07
2022-12-15T23:58:42.416Z,84.88
